SDJ weather

Sendai Airport
Sendai, Miyagi Prefecture, Japan

Public forecast

Using degrees Celsius for public forecast. Weather courtesy of forecast.io.

Current aviation weather report (METAR) for Sendai Airport

Report is more than 6 hours old.

Retrieved 2019/12/07 12:00 UTC (7 hours ago):

RJSS 071200Z 21009KT 9999 FEW030 SCT050 BKN/// 07/M03 Q1017

Aviation forecast (TAF) for Sendai Airport

Retrieved 2019/12/07 18:00 UTC (43 minutes ago):

TAF RJSS 071705Z 0718/0900 32013KT 9999 FEW030